createdAt,value
2019-03-10T00:00:18.819Z,58.84
2019-03-10T00:01:19.008Z,51.76
2019-03-10T00:02:19.185Z,55.18
2019-03-10T00:03:19.362Z,62.99
2019-03-10T00:04:19.573Z,55.18
2019-03-10T00:05:19.733Z,54.93
2019-03-10T00:06:19.923Z,54.44
2019-03-10T00:07:20.118Z,56.15
2019-03-10T00:08:20.299Z,54.20
2019-03-10T00:09:20.481Z,57.13
2019-03-10T00:10:20.669Z,54.44
2019-03-10T00:11:20.849Z,52.73
2019-03-10T00:12:21.030Z,59.33
2019-03-10T00:13:21.219Z,56.88
2019-03-10T00:14:21.395Z,54.93
2019-03-10T00:15:21.586Z,57.62
2019-03-10T00:16:21.775Z,59.08
2019-03-10T00:17:21.961Z,55.66
2019-03-10T00:18:22.151Z,57.37
2019-03-10T00:19:22.332Z,56.64
2019-03-10T00:20:22.532Z,54.20
2019-03-10T00:21:22.728Z,60.79
2019-03-10T00:22:22.901Z,54.20
2019-03-10T00:23:23.077Z,50.05
2019-03-10T00:24:23.273Z,51.76
2019-03-10T00:25:23.452Z,52.25
2019-03-10T00:26:23.645Z,54.20
2019-03-10T00:27:23.819Z,55.91
2019-03-10T00:28:24.000Z,55.18
2019-03-10T00:29:24.188Z,55.91
2019-03-10T00:30:24.371Z,53.71
2019-03-10T00:31:24.572Z,55.42
2019-03-10T00:32:24.745Z,52.25
2019-03-10T00:33:24.928Z,53.22
2019-03-10T00:34:25.120Z,55.66
2019-03-10T00:35:25.302Z,55.42
2019-03-10T00:36:25.490Z,58.84
2019-03-10T00:37:25.678Z,57.62
2019-03-10T00:38:25.861Z,59.33
2019-03-10T00:39:26.045Z,57.37
2019-03-10T00:40:26.222Z,56.40
2019-03-10T00:41:26.404Z,59.33
2019-03-10T00:42:26.593Z,57.37
2019-03-10T00:43:26.772Z,58.11
2019-03-10T00:44:26.960Z,56.15
2019-03-10T00:45:27.146Z,59.08
2019-03-10T00:46:27.337Z,55.18
2019-03-10T00:47:27.518Z,57.37
2019-03-10T00:48:27.701Z,61.28
2019-03-10T00:49:27.885Z,59.33
2019-03-10T00:50:28.076Z,56.15
2019-03-10T00:51:28.267Z,54.20
2019-03-10T00:52:28.447Z,59.33
2019-03-10T00:53:28.627Z,58.59
2019-03-10T00:54:28.816Z,57.13
2019-03-10T00:55:29.018Z,56.40
2019-03-10T00:56:29.185Z,54.93
2019-03-10T00:57:29.372Z,57.37
2019-03-10T00:58:29.561Z,60.30
2019-03-10T00:59:29.751Z,52.73
2019-03-10T01:00:29.935Z,53.22
2019-03-10T01:01:30.117Z,53.71
2019-03-10T01:02:30.302Z,53.71
2019-03-10T01:03:30.488Z,57.13
2019-03-10T01:04:30.681Z,65.19
2019-03-10T01:05:30.869Z,58.59
2019-03-10T01:06:31.043Z,59.81
2019-03-10T01:07:31.224Z,52.49
2019-03-10T01:08:31.416Z,60.06
2019-03-10T01:09:31.607Z,52.73
2019-03-10T01:10:31.791Z,59.57
2019-03-10T01:11:31.974Z,51.76
2019-03-10T01:12:32.162Z,56.64
2019-03-10T01:13:32.340Z,59.81
2019-03-10T01:14:32.522Z,62.99
2019-03-10T01:15:32.706Z,57.62
2019-03-10T01:16:32.890Z,58.84
2019-03-10T01:17:33.080Z,51.51
2019-03-10T01:18:33.269Z,57.37
2019-03-10T01:19:33.461Z,61.28
2019-03-10T01:20:33.644Z,59.08
2019-03-10T01:21:33.833Z,62.50
2019-03-10T01:22:34.013Z,58.59
2019-03-10T01:23:34.201Z,61.52
2019-03-10T01:24:34.384Z,57.62
2019-03-10T01:25:34.559Z,58.59
2019-03-10T01:26:34.751Z,57.37
2019-03-10T01:27:34.927Z,59.33
2019-03-10T01:28:35.107Z,56.64
2019-03-10T01:29:35.291Z,53.47
2019-03-10T01:30:35.477Z,55.91
2019-03-10T01:31:35.660Z,59.57
2019-03-10T01:32:35.844Z,63.72
2019-03-10T01:33:36.028Z,59.08
2019-03-10T01:34:36.215Z,49.32
2019-03-10T01:35:36.394Z,53.47
2019-03-10T01:36:36.579Z,50.29
2019-03-10T01:37:36.774Z,56.15
2019-03-10T01:38:36.956Z,55.66
2019-03-10T01:39:37.149Z,56.88
2019-03-10T01:40:37.334Z,52.98
2019-03-10T01:41:37.509Z,51.76
2019-03-10T01:42:37.689Z,59.08
2019-03-10T01:43:37.871Z,56.15
2019-03-10T01:44:38.057Z,57.13
2019-03-10T01:45:38.235Z,55.42
2019-03-10T01:46:38.414Z,58.59
2019-03-10T01:47:38.611Z,54.93
2019-03-10T01:48:38.788Z,57.62
2019-03-10T01:49:38.978Z,56.40
2019-03-10T01:50:39.145Z,62.50
2019-03-10T01:51:39.334Z,56.40
2019-03-10T01:52:39.508Z,55.91
2019-03-10T01:53:39.719Z,57.62
2019-03-10T01:54:39.887Z,56.64
2019-03-10T01:55:40.072Z,57.13
2019-03-10T01:56:40.252Z,51.03
2019-03-10T01:57:40.435Z,55.18
2019-03-10T01:58:40.622Z,54.44
2019-03-10T01:59:40.796Z,54.44
2019-03-10T02:00:40.987Z,55.91
2019-03-10T02:01:41.174Z,56.15
2019-03-10T02:02:41.356Z,56.15
2019-03-10T02:03:41.541Z,50.29
2019-03-10T02:04:41.731Z,54.69
2019-03-10T02:05:41.903Z,56.88
2019-03-10T02:06:42.090Z,51.03
2019-03-10T02:07:42.270Z,54.20
2019-03-10T02:08:42.456Z,61.77
2019-03-10T02:09:42.643Z,55.18
2019-03-10T02:10:42.842Z,57.37
2019-03-10T02:11:43.011Z,57.86
2019-03-10T02:12:43.214Z,54.20
2019-03-10T02:13:43.395Z,55.66
2019-03-10T02:14:43.578Z,49.80
2019-03-10T02:15:43.760Z,55.66
2019-03-10T02:16:43.943Z,56.88
2019-03-10T02:17:44.125Z,57.13
2019-03-10T02:18:44.312Z,57.37
2019-03-10T02:19:44.502Z,58.84
2019-03-10T02:20:44.680Z,56.88
2019-03-10T02:21:44.871Z,55.18
2019-03-10T02:22:45.058Z,57.13
2019-03-10T02:23:45.243Z,58.59
2019-03-10T02:24:45.423Z,58.11
2019-03-10T02:25:45.596Z,56.64
2019-03-10T02:26:45.800Z,56.40
2019-03-10T02:27:45.993Z,56.15
2019-03-10T02:28:46.176Z,55.42
2019-03-10T02:29:46.359Z,55.42
2019-03-10T02:30:46.545Z,57.62
2019-03-10T02:31:46.735Z,58.84
2019-03-10T02:32:46.923Z,53.22
2019-03-10T02:33:47.087Z,58.11
2019-03-10T02:34:47.285Z,60.30
2019-03-10T02:35:47.472Z,55.42
2019-03-10T02:36:47.661Z,55.42
2019-03-10T02:37:47.845Z,54.69
2019-03-10T02:38:48.035Z,58.84
2019-03-10T02:39:48.227Z,57.62
2019-03-10T02:40:48.406Z,55.91
2019-03-10T02:41:48.587Z,54.93
2019-03-10T02:42:48.780Z,61.04
2019-03-10T02:43:48.953Z,60.06
2019-03-10T02:44:49.146Z,54.93
2019-03-10T02:45:49.333Z,56.88
2019-03-10T02:46:49.514Z,56.15
2019-03-10T02:47:49.696Z,56.88
2019-03-10T02:48:49.881Z,55.66
2019-03-10T02:49:50.059Z,54.44
2019-03-10T02:50:50.244Z,55.91
2019-03-10T02:51:50.426Z,56.40
2019-03-10T02:52:50.609Z,56.88
2019-03-10T02:53:50.809Z,56.88
2019-03-10T02:54:50.995Z,57.13
2019-03-10T02:55:51.172Z,54.93
2019-03-10T02:56:51.357Z,59.57
2019-03-10T02:57:51.535Z,56.64
2019-03-10T02:58:51.721Z,57.86
2019-03-10T02:59:51.905Z,62.74
2019-03-10T03:00:52.087Z,57.13
2019-03-10T03:01:52.276Z,56.88
2019-03-10T03:02:52.462Z,59.33
2019-03-10T03:03:52.644Z,48.83
2019-03-10T03:04:52.841Z,54.69
2019-03-10T03:05:53.017Z,56.15
2019-03-10T03:06:53.196Z,60.30
2019-03-10T03:07:53.454Z,55.18
2019-03-10T03:08:53.558Z,51.76
2019-03-10T03:09:53.747Z,58.84
2019-03-10T03:10:53.929Z,54.44
2019-03-10T03:11:54.115Z,55.66
2019-03-10T03:12:54.314Z,55.66
2019-03-10T03:13:54.494Z,54.69
2019-03-10T03:14:54.672Z,50.78
2019-03-10T03:15:54.844Z,54.93
2019-03-10T03:16:55.028Z,59.57
2019-03-10T03:17:55.216Z,56.64
2019-03-10T03:18:55.389Z,55.91
2019-03-10T03:19:55.611Z,53.96
2019-03-10T03:20:55.757Z,57.13
2019-03-10T03:21:55.945Z,56.88
2019-03-10T03:22:56.134Z,54.20
2019-03-10T03:23:56.317Z,55.66
2019-03-10T03:24:56.502Z,51.27
2019-03-10T03:25:56.697Z,54.44
2019-03-10T03:26:56.873Z,55.91
2019-03-10T03:27:57.061Z,56.40
2019-03-10T03:28:57.247Z,57.62
2019-03-10T03:29:57.435Z,60.06
2019-03-10T03:30:57.632Z,53.22
2019-03-10T03:31:57.804Z,54.44
2019-03-10T03:32:58.000Z,52.25
2019-03-10T03:33:58.180Z,55.42
2019-03-10T03:34:58.354Z,55.42
2019-03-10T03:35:58.546Z,57.37
2019-03-10T03:36:58.723Z,54.44
2019-03-10T03:37:58.928Z,50.78
2019-03-10T03:38:59.115Z,54.44
2019-03-10T03:39:59.284Z,55.91
2019-03-10T03:40:59.471Z,57.86
2019-03-10T03:41:59.657Z,56.88
2019-03-10T03:42:59.840Z,55.42
2019-03-10T03:44:00.012Z,54.93
2019-03-10T03:45:00.331Z,59.08
2019-03-10T03:46:00.378Z,56.88
2019-03-10T03:47:00.567Z,55.91
2019-03-10T03:48:00.754Z,57.37
2019-03-10T03:49:00.934Z,55.42
2019-03-10T03:50:01.117Z,56.88
2019-03-10T03:51:01.301Z,54.20
2019-03-10T03:52:01.488Z,52.73
2019-03-10T03:53:01.676Z,57.13
2019-03-10T03:54:01.862Z,55.91
2019-03-10T03:55:02.041Z,58.84
2019-03-10T03:56:02.233Z,60.55
2019-03-10T03:57:02.416Z,55.18
2019-03-10T03:58:02.598Z,57.37
2019-03-10T03:59:02.782Z,55.66
2019-03-10T04:00:02.981Z,58.35
2019-03-10T04:01:03.153Z,56.64
2019-03-10T04:02:03.341Z,54.20
2019-03-10T04:03:03.519Z,54.93
2019-03-10T04:04:03.727Z,52.00
2019-03-10T04:05:03.893Z,57.37
2019-03-10T04:06:04.061Z,57.86
2019-03-10T04:07:04.254Z,60.06
2019-03-10T04:08:04.437Z,55.18
2019-03-10T04:09:04.616Z,55.42
2019-03-10T04:10:04.804Z,57.37
2019-03-10T04:11:04.977Z,54.69
2019-03-10T04:12:05.176Z,52.25
2019-03-10T04:13:05.357Z,56.64
2019-03-10T04:14:05.534Z,58.11
2019-03-10T04:15:05.727Z,58.35
2019-03-10T04:16:05.901Z,56.88
2019-03-10T04:17:06.076Z,56.88
2019-03-10T04:18:06.255Z,55.91
2019-03-10T04:19:06.442Z,55.42
2019-03-10T04:20:06.626Z,55.18
2019-03-10T04:21:06.810Z,54.44
2019-03-10T04:22:06.997Z,57.86
2019-03-10T04:23:07.175Z,62.01
2019-03-10T04:24:07.365Z,50.29
2019-03-10T04:25:07.557Z,54.93
2019-03-10T04:26:07.737Z,56.40
2019-03-10T04:27:07.923Z,53.71
2019-03-10T04:28:08.112Z,54.20
2019-03-10T04:29:08.304Z,54.44
2019-03-10T04:30:08.486Z,55.18
2019-03-10T04:31:08.671Z,54.69
2019-03-10T04:32:08.855Z,56.64
2019-03-10T04:33:09.041Z,50.78
2019-03-10T04:34:09.227Z,56.40
2019-03-10T04:35:09.406Z,56.64
2019-03-10T04:36:09.664Z,56.40
2019-03-10T04:37:09.784Z,54.20
2019-03-10T04:38:09.955Z,57.86
2019-03-10T04:39:10.144Z,53.47
2019-03-10T04:40:10.321Z,57.62
2019-03-10T04:41:10.530Z,53.96
2019-03-10T04:42:10.732Z,53.71
2019-03-10T04:43:10.903Z,59.57
2019-03-10T04:44:11.089Z,57.13
2019-03-10T04:45:11.282Z,55.18
2019-03-10T04:46:11.468Z,62.01
2019-03-10T04:47:11.697Z,56.88
2019-03-10T04:48:11.857Z,56.40
2019-03-10T04:49:12.035Z,55.91
2019-03-10T04:50:12.229Z,57.86
2019-03-10T04:51:12.397Z,62.01
2019-03-10T04:52:12.589Z,58.84
2019-03-10T04:53:12.773Z,59.57
2019-03-10T04:54:12.960Z,59.57
2019-03-10T04:55:13.156Z,62.01
2019-03-10T04:56:13.352Z,53.47
2019-03-10T04:57:13.546Z,55.42
2019-03-10T04:58:13.734Z,54.44
2019-03-10T04:59:13.921Z,60.06
2019-03-10T05:00:14.112Z,60.30
2019-03-10T05:01:14.293Z,58.11
2019-03-10T05:02:14.476Z,60.30
2019-03-10T05:03:14.667Z,60.06
2019-03-10T05:04:14.852Z,54.93
2019-03-10T05:05:15.036Z,55.42
2019-03-10T05:06:15.225Z,56.64
2019-03-10T05:07:15.422Z,57.62
2019-03-10T05:08:15.609Z,55.91
2019-03-10T05:09:15.798Z,54.69
2019-03-10T05:10:15.984Z,57.86
2019-03-10T05:11:16.172Z,60.30
2019-03-10T05:12:16.370Z,56.15
2019-03-10T05:13:16.556Z,59.57
2019-03-10T05:17:59.796Z,60.30
2019-03-10T05:18:59.983Z,59.33
2019-03-10T05:20:00.346Z,56.88
2019-03-10T05:21:00.345Z,62.99
2019-03-10T05:22:00.579Z,59.57
2019-03-10T05:23:00.702Z,61.04
2019-03-10T05:24:00.895Z,60.06
2019-03-10T05:25:01.079Z,59.81
2019-03-10T05:26:01.258Z,59.57
2019-03-10T05:27:01.444Z,59.33
2019-03-10T05:28:01.622Z,62.74
2019-03-10T05:29:01.813Z,60.06
2019-03-10T05:30:01.995Z,58.59
2019-03-10T05:31:02.182Z,60.79
2019-03-10T05:32:02.360Z,57.37
2019-03-10T05:33:02.544Z,58.84
2019-03-10T05:34:02.727Z,60.30
2019-03-10T05:35:02.915Z,57.86
2019-03-10T05:36:03.098Z,58.59
2019-03-10T05:37:03.277Z,57.86
2019-03-10T05:38:03.455Z,60.30
2019-03-10T05:39:03.661Z,58.35
2019-03-10T05:40:03.824Z,61.77
2019-03-10T05:41:04.005Z,62.26
2019-03-10T05:42:04.189Z,57.37
2019-03-10T05:43:04.362Z,62.50
2019-03-10T05:44:04.555Z,60.06
2019-03-10T05:45:04.729Z,62.50
2019-03-10T05:46:04.912Z,59.33
2019-03-10T05:47:05.091Z,61.28
2019-03-10T05:48:05.300Z,59.81
2019-03-10T05:49:05.465Z,59.81
2019-03-10T05:50:05.648Z,59.08
2019-03-10T05:51:05.835Z,56.40
2019-03-10T05:52:06.018Z,57.37
2019-03-10T05:53:07.582Z,67.87
2019-03-10T05:54:06.387Z,59.57
2019-03-10T05:55:06.567Z,59.57
2019-03-10T05:56:06.754Z,57.86
2019-03-10T05:57:06.933Z,57.13
2019-03-10T05:58:07.115Z,61.77
2019-03-10T05:59:07.295Z,61.28
2019-03-10T06:00:07.484Z,60.30
2019-03-10T06:01:07.661Z,57.62
2019-03-10T06:02:07.869Z,58.11
2019-03-10T06:03:08.052Z,58.59
2019-03-10T06:04:08.235Z,57.62
2019-03-10T06:05:08.415Z,59.08
2019-03-10T06:06:08.599Z,57.62
2019-03-10T06:07:08.783Z,59.57
2019-03-10T06:08:08.963Z,62.50
2019-03-10T06:09:09.159Z,59.81
2019-03-10T06:10:09.330Z,66.16
2019-03-10T06:11:09.525Z,60.79
2019-03-10T06:12:09.725Z,60.30
2019-03-10T06:13:09.893Z,59.81
2019-03-10T06:14:10.081Z,60.06
2019-03-10T06:15:10.254Z,60.79
2019-03-10T06:16:10.458Z,61.77
2019-03-10T06:17:10.631Z,62.74
2019-03-10T06:18:13.846Z,69.58
2019-03-10T06:19:11.015Z,61.77
2019-03-10T06:20:11.194Z,68.36
2019-03-10T06:21:11.414Z,59.81
2019-03-10T06:22:11.593Z,60.55
2019-03-10T06:23:11.775Z,61.04
2019-03-10T06:24:11.958Z,61.28
2019-03-10T06:25:12.134Z,60.79
2019-03-10T06:26:12.320Z,60.06
2019-03-10T06:27:12.497Z,67.87
2019-03-10T06:28:12.680Z,59.08
2019-03-10T06:29:12.866Z,60.06
2019-03-10T06:30:13.055Z,62.99
2019-03-10T06:31:13.240Z,58.11
2019-03-10T06:32:13.416Z,60.06
2019-03-10T06:33:13.602Z,57.62
2019-03-10T06:34:13.782Z,61.28
2019-03-10T06:35:13.974Z,62.01
2019-03-10T06:36:14.156Z,62.50
2019-03-10T06:37:14.347Z,60.55
2019-03-10T06:38:14.528Z,59.33
2019-03-10T06:39:14.714Z,62.74
2019-03-10T06:40:14.891Z,59.08
2019-03-10T06:41:15.068Z,60.30
2019-03-10T06:42:15.250Z,62.74
2019-03-10T06:43:15.427Z,62.01
2019-03-10T06:44:15.604Z,61.28
2019-03-10T06:45:15.809Z,60.30
2019-03-10T06:46:15.986Z,60.55
2019-03-10T06:47:16.172Z,60.06
2019-03-10T06:48:16.350Z,62.50
2019-03-10T06:49:16.530Z,60.30
2019-03-10T06:50:16.718Z,60.06
2019-03-10T06:51:16.905Z,60.55
2019-03-10T06:52:17.079Z,61.77
2019-03-10T06:53:17.929Z,64.21
2019-03-10T06:54:17.491Z,65.67
2019-03-10T06:55:17.673Z,61.52
2019-03-10T06:56:17.850Z,62.26
2019-03-10T06:57:18.045Z,65.43
2019-03-10T06:58:18.233Z,63.23
2019-03-10T06:59:18.412Z,62.01
2019-03-10T07:00:18.596Z,60.79
2019-03-10T07:01:18.784Z,62.01
2019-03-10T07:02:18.964Z,63.48
2019-03-10T07:03:19.147Z,63.96
2019-03-10T07:04:19.387Z,70.31
2019-03-10T07:05:19.512Z,70.80
2019-03-10T07:06:19.688Z,69.58
2019-03-10T07:07:19.867Z,62.74
2019-03-10T07:08:20.053Z,66.16
2019-03-10T07:09:20.243Z,66.41
2019-03-10T07:10:20.416Z,63.23
2019-03-10T07:11:20.597Z,64.94
2019-03-10T07:12:20.779Z,62.50
2019-03-10T07:13:20.962Z,63.23
2019-03-10T07:14:21.156Z,63.96
2019-03-10T07:15:21.335Z,70.07
2019-03-10T07:16:21.517Z,61.77
2019-03-10T07:17:21.698Z,63.48
2019-03-10T07:18:21.888Z,62.74
2019-03-10T07:19:22.076Z,64.21
2019-03-10T07:20:22.276Z,64.21
2019-03-10T07:21:22.434Z,64.21
2019-03-10T07:22:22.634Z,69.58
2019-03-10T07:23:22.804Z,69.09
2019-03-10T07:24:22.988Z,63.48
2019-03-10T07:25:23.166Z,68.12
2019-03-10T07:26:23.349Z,71.29
2019-03-10T07:27:23.531Z,62.99
2019-03-10T07:28:23.709Z,61.77
2019-03-10T07:29:23.891Z,60.79
2019-03-10T07:30:24.079Z,61.28
2019-03-10T07:31:24.255Z,60.79
2019-03-10T07:32:24.444Z,61.04
2019-03-10T07:33:24.620Z,59.81
2019-03-10T07:34:24.799Z,60.30
2019-03-10T07:35:24.975Z,60.55
2019-03-10T07:36:25.168Z,60.06
2019-03-10T07:37:25.362Z,61.77
2019-03-10T07:38:25.530Z,60.55
2019-03-10T07:39:25.715Z,59.57
2019-03-10T07:40:25.903Z,59.57
2019-03-10T07:41:26.152Z,62.01
2019-03-10T07:42:26.263Z,66.16
2019-03-10T07:43:26.444Z,62.26
2019-03-10T07:44:26.626Z,64.21
2019-03-10T07:45:26.822Z,60.30
2019-03-10T07:46:27.004Z,62.01
2019-03-10T07:47:27.217Z,61.04
2019-03-10T07:48:27.373Z,60.79
2019-03-10T07:49:27.560Z,70.80
2019-03-10T07:50:27.739Z,59.81
2019-03-10T07:51:27.928Z,63.72
2019-03-10T07:52:28.113Z,60.30
2019-03-10T07:53:28.298Z,61.77
2019-03-10T07:54:28.482Z,61.04
2019-03-10T07:55:28.662Z,61.28
2019-03-10T07:56:28.844Z,62.74
2019-03-10T07:57:29.037Z,61.04
2019-03-10T07:58:29.207Z,60.79
2019-03-10T07:59:29.409Z,61.04
2019-03-10T08:00:29.567Z,62.74
2019-03-10T08:01:29.763Z,60.79
2019-03-10T08:02:29.936Z,61.52
2019-03-10T08:03:30.112Z,62.50
2019-03-10T08:04:30.298Z,62.99
2019-03-10T08:05:30.479Z,60.30
2019-03-10T08:06:30.673Z,63.48
2019-03-10T08:07:30.863Z,60.79
2019-03-10T08:08:31.053Z,66.16
2019-03-10T08:09:31.242Z,63.96
2019-03-10T08:10:31.422Z,73.73
2019-03-10T08:11:31.613Z,66.89
2019-03-10T08:12:31.790Z,66.41
2019-03-10T08:13:31.970Z,69.34
2019-03-10T08:14:32.153Z,65.67
2019-03-10T08:15:32.335Z,62.01
2019-03-10T08:16:32.518Z,62.01
2019-03-10T08:17:32.707Z,61.52
2019-03-10T08:18:32.887Z,62.26
2019-03-10T08:19:33.074Z,61.77
2019-03-10T08:20:33.256Z,61.77
2019-03-10T08:21:33.438Z,61.52
2019-03-10T08:22:33.621Z,61.28
2019-03-10T08:23:33.804Z,62.50
2019-03-10T08:24:33.988Z,62.01
2019-03-10T08:25:34.170Z,61.77
2019-03-10T08:26:34.352Z,62.74
2019-03-10T08:27:34.533Z,62.26
2019-03-10T08:28:34.718Z,60.30
2019-03-10T08:29:34.904Z,61.04
2019-03-10T08:30:35.089Z,65.43
2019-03-10T08:31:35.270Z,62.01
2019-03-10T08:32:35.452Z,61.77
2019-03-10T08:33:35.634Z,61.28
2019-03-10T08:34:35.829Z,60.55
2019-03-10T08:35:36.018Z,61.77
2019-03-10T08:36:36.209Z,67.14
2019-03-10T08:37:36.396Z,63.23
2019-03-10T08:38:36.583Z,61.28
2019-03-10T08:39:36.767Z,62.26
2019-03-10T08:40:36.953Z,62.50
2019-03-10T08:41:37.136Z,62.74
2019-03-10T08:42:37.320Z,63.48
2019-03-10T08:43:37.506Z,60.79
2019-03-10T08:44:37.698Z,62.50
2019-03-10T08:45:37.880Z,62.26
2019-03-10T08:46:38.063Z,63.23
2019-03-10T08:47:38.247Z,63.72
2019-03-10T08:48:38.436Z,61.04
2019-03-10T08:49:45.047Z,61.28
2019-03-10T08:50:38.804Z,61.52
2019-03-10T08:51:38.992Z,61.77
2019-03-10T08:52:39.173Z,61.04
2019-03-10T08:53:39.358Z,64.70
2019-03-10T08:54:39.545Z,61.52
2019-03-10T08:55:39.770Z,61.52
2019-03-10T08:56:39.911Z,61.04
2019-03-10T08:57:40.094Z,68.12
2019-03-10T08:58:40.279Z,60.55
2019-03-10T08:59:40.458Z,62.99
2019-03-10T09:00:40.644Z,62.01
2019-03-10T09:01:40.826Z,63.48
2019-03-10T09:02:41.015Z,64.45
2019-03-10T09:03:41.194Z,65.67
2019-03-10T09:04:41.374Z,61.28
2019-03-10T09:05:41.560Z,62.50
2019-03-10T09:06:41.750Z,66.89
2019-03-10T09:07:41.924Z,70.56
2019-03-10T09:08:42.112Z,73.49
2019-03-10T09:09:42.296Z,61.04
2019-03-10T09:10:42.482Z,70.07
2019-03-10T09:11:42.681Z,69.34
2019-03-10T09:12:42.865Z,66.65
2019-03-10T09:13:43.046Z,62.26
2019-03-10T09:14:43.235Z,61.77
2019-03-10T09:15:43.440Z,61.28
2019-03-10T09:16:43.606Z,66.89
2019-03-10T09:17:43.789Z,61.28
2019-03-10T09:18:43.974Z,62.50
2019-03-10T09:19:44.168Z,62.01
2019-03-10T09:20:44.355Z,61.52
2019-03-10T09:21:44.548Z,62.99
2019-03-10T09:22:44.741Z,62.26
2019-03-10T09:23:44.923Z,60.30
2019-03-10T09:24:45.123Z,60.79
2019-03-10T09:25:45.302Z,61.28
2019-03-10T09:26:45.478Z,60.55
2019-03-10T09:27:45.670Z,61.77
2019-03-10T09:28:45.867Z,66.41
2019-03-10T09:29:46.037Z,64.70
2019-03-10T09:30:46.220Z,61.77
2019-03-10T09:31:46.403Z,61.52
2019-03-10T09:32:46.590Z,61.77
2019-03-10T09:33:46.778Z,62.26
2019-03-10T09:34:46.972Z,61.28
2019-03-10T09:35:47.157Z,63.48
2019-03-10T09:36:47.348Z,62.74
2019-03-10T09:37:47.538Z,61.28
2019-03-10T09:38:47.724Z,62.74
2019-03-10T09:39:47.900Z,63.23
2019-03-10T09:40:48.087Z,61.28
2019-03-10T09:41:48.267Z,64.21
2019-03-10T09:42:48.459Z,67.14
2019-03-10T09:43:48.645Z,62.99
2019-03-10T09:44:48.827Z,61.77
2019-03-10T09:45:49.025Z,60.79
2019-03-10T09:46:49.226Z,61.77
2019-03-10T09:47:49.393Z,61.04
2019-03-10T09:48:49.581Z,64.94
2019-03-10T09:49:49.770Z,61.04
2019-03-10T09:50:49.970Z,61.52
2019-03-10T09:51:50.160Z,62.50
2019-03-10T09:52:50.343Z,62.74
2019-03-10T09:53:50.549Z,63.96
2019-03-10T09:54:50.722Z,63.23
2019-03-10T09:55:50.907Z,63.23
2019-03-10T09:56:51.086Z,66.16
2019-03-10T09:57:51.272Z,70.07
2019-03-10T09:58:51.459Z,68.12
2019-03-10T09:59:51.646Z,62.26
2019-03-10T10:00:51.823Z,70.31
2019-03-10T10:01:52.013Z,73.73
2019-03-10T10:02:52.198Z,64.45
2019-03-10T10:03:52.384Z,62.99
2019-03-10T10:04:52.569Z,71.04
2019-03-10T10:05:52.763Z,70.31
2019-03-10T10:06:52.932Z,62.99
2019-03-10T10:07:54.081Z,62.99
2019-03-10T10:08:53.292Z,62.01
2019-03-10T10:09:53.480Z,62.50
2019-03-10T10:10:53.662Z,63.23
2019-03-10T10:11:53.849Z,62.99
2019-03-10T10:12:54.027Z,62.50
2019-03-10T10:13:54.228Z,66.41
2019-03-10T10:14:54.378Z,61.28
2019-03-10T10:15:54.573Z,62.74
2019-03-10T10:16:54.765Z,62.26
2019-03-10T10:17:54.944Z,62.99
2019-03-10T10:18:55.121Z,60.55
2019-03-10T10:19:55.303Z,62.01
2019-03-10T10:20:55.493Z,63.72
2019-03-10T10:21:55.668Z,61.77
2019-03-10T10:22:55.875Z,64.21
2019-03-10T10:23:56.053Z,64.45
2019-03-10T10:24:56.238Z,61.04
2019-03-10T10:25:56.425Z,62.74
2019-03-10T10:26:56.609Z,63.23
2019-03-10T10:27:56.814Z,62.01
2019-03-10T10:28:56.990Z,74.22
2019-03-10T10:29:57.177Z,66.16
2019-03-10T10:30:57.357Z,63.72
2019-03-10T10:31:57.544Z,63.48
2019-03-10T10:32:57.729Z,66.16
2019-03-10T10:33:57.918Z,67.38
2019-03-10T10:34:58.118Z,68.36
2019-03-10T10:35:58.310Z,63.23
2019-03-10T10:36:58.495Z,62.99
2019-03-10T10:37:58.679Z,64.21
2019-03-10T10:38:58.866Z,65.43
2019-03-10T10:39:59.055Z,65.67
2019-03-10T10:40:59.240Z,62.50
2019-03-10T10:41:59.436Z,63.48
2019-03-10T10:42:59.610Z,62.99
2019-03-10T10:43:59.798Z,61.77
2019-03-10T10:44:59.989Z,63.48
2019-03-10T10:46:00.177Z,62.74
2019-03-10T10:47:00.359Z,62.74
2019-03-10T10:48:00.543Z,63.23
2019-03-10T10:49:00.725Z,71.29
2019-03-10T10:50:00.931Z,63.96
2019-03-10T10:51:01.115Z,62.99
2019-03-10T10:52:01.363Z,61.77
2019-03-10T10:53:01.479Z,64.70
2019-03-10T10:54:01.664Z,63.23
2019-03-10T10:55:01.853Z,63.48
2019-03-10T10:56:02.055Z,64.94
2019-03-10T10:57:02.236Z,62.50
2019-03-10T10:58:02.412Z,63.23
2019-03-10T10:59:02.599Z,63.48
2019-03-10T11:00:02.783Z,62.50
2019-03-10T11:01:02.969Z,66.65
2019-03-10T11:02:03.166Z,63.96
2019-03-10T11:03:03.357Z,63.72
2019-03-10T11:04:03.547Z,64.21
2019-03-10T11:05:03.753Z,64.70
2019-03-10T11:06:03.929Z,62.74
2019-03-10T11:07:04.123Z,62.50
2019-03-10T11:08:04.313Z,63.23
2019-03-10T11:09:04.508Z,64.45
2019-03-10T11:10:04.698Z,62.50
2019-03-10T11:11:04.890Z,63.96
2019-03-10T11:12:05.077Z,62.50
2019-03-10T11:13:05.268Z,64.21
2019-03-10T11:14:05.461Z,63.23
2019-03-10T11:15:05.653Z,63.48
2019-03-10T11:16:05.836Z,62.26
2019-03-10T11:17:06.028Z,62.01
2019-03-10T11:18:09.649Z,61.52
2019-03-10T11:19:06.418Z,62.74
2019-03-10T11:20:06.607Z,63.23
2019-03-10T11:21:06.789Z,62.01
2019-03-10T11:22:06.983Z,63.48
2019-03-10T11:23:07.192Z,64.70
2019-03-10T11:24:07.369Z,61.04
2019-03-10T11:25:07.565Z,62.26
2019-03-10T11:26:08.659Z,62.50
2019-03-10T11:27:07.973Z,60.79
2019-03-10T11:28:08.172Z,63.48
2019-03-10T11:29:08.366Z,68.60
2019-03-10T11:30:08.550Z,60.06
2019-03-10T11:31:08.749Z,73.00
2019-03-10T11:32:08.927Z,62.26
2019-03-10T11:33:09.129Z,61.77
2019-03-10T11:34:09.319Z,62.74
2019-03-10T11:35:09.509Z,61.28
2019-03-10T11:36:09.706Z,62.74
2019-03-10T11:37:09.902Z,63.23
2019-03-10T11:38:10.112Z,61.04
2019-03-10T11:39:10.307Z,62.01
2019-03-10T11:40:10.510Z,65.19
2019-03-10T11:41:10.704Z,62.74
2019-03-10T11:42:10.915Z,61.04
2019-03-10T11:43:11.106Z,60.79
2019-03-10T11:44:11.311Z,61.28
2019-03-10T11:45:11.520Z,62.50
2019-03-10T11:46:11.695Z,65.67
2019-03-10T11:47:11.882Z,64.21
2019-03-10T11:48:12.072Z,71.29
2019-03-10T11:49:12.270Z,66.16
2019-03-10T11:50:14.941Z,60.55
2019-03-10T11:51:12.657Z,60.79
2019-03-10T11:52:12.849Z,62.99
2019-03-10T11:53:19.128Z,58.84
2019-03-10T11:54:13.250Z,68.12
2019-03-10T11:55:13.527Z,63.23
2019-03-10T11:56:13.631Z,65.67
2019-03-10T11:57:13.829Z,61.52
2019-03-10T11:58:14.012Z,70.56
2019-03-10T11:59:14.210Z,65.92
2019-03-10T12:00:14.410Z,68.36
2019-03-10T12:01:14.606Z,70.31
2019-03-10T12:02:16.301Z,72.27
2019-03-10T12:03:14.997Z,66.89
2019-03-10T12:04:15.188Z,64.45
2019-03-10T12:05:15.381Z,63.72
2019-03-10T12:06:15.569Z,65.92
2019-03-10T12:07:15.787Z,63.23
2019-03-10T12:08:15.960Z,61.77
2019-03-10T12:09:16.160Z,64.21
2019-03-10T12:10:16.354Z,65.92
2019-03-10T12:11:16.534Z,62.01
2019-03-10T12:12:16.728Z,63.72
2019-03-10T12:13:16.936Z,66.89
2019-03-10T12:14:17.133Z,63.23
2019-03-10T12:15:17.319Z,62.74
2019-03-10T12:16:17.510Z,62.26
2019-03-10T12:17:17.694Z,62.99
2019-03-10T12:18:17.907Z,66.16
2019-03-10T12:19:18.080Z,62.74
2019-03-10T12:20:18.276Z,64.70
2019-03-10T12:21:18.463Z,66.16
2019-03-10T12:22:18.658Z,62.01
2019-03-10T12:23:18.846Z,67.38
2019-03-10T12:24:19.034Z,60.30
2019-03-10T12:25:19.234Z,59.08
2019-03-10T12:26:19.417Z,62.26
2019-03-10T12:27:19.613Z,63.23
2019-03-10T12:28:19.807Z,60.06
2019-03-10T12:29:20.002Z,61.28
2019-03-10T12:30:20.196Z,64.21
2019-03-10T12:31:20.380Z,65.19
2019-03-10T12:32:20.575Z,71.78
2019-03-10T12:33:20.780Z,78.13
2019-03-10T12:34:20.953Z,77.15
2019-03-10T12:35:21.154Z,77.64
2019-03-10T12:36:21.345Z,78.37
2019-03-10T12:37:21.554Z,72.02
2019-03-10T12:38:21.731Z,69.58
2019-03-10T12:39:21.921Z,64.70
2019-03-10T12:40:22.113Z,63.23
2019-03-10T12:41:22.303Z,62.99
2019-03-10T12:42:22.500Z,63.23
2019-03-10T12:43:22.693Z,62.01
2019-03-10T12:44:22.892Z,63.72
2019-03-10T12:45:23.069Z,65.92
2019-03-10T12:46:23.257Z,65.92
2019-03-10T12:47:23.445Z,62.26
2019-03-10T12:48:23.637Z,62.50
2019-03-10T12:49:23.826Z,65.43
2019-03-10T12:50:24.017Z,61.28
2019-03-10T12:51:24.214Z,62.50
2019-03-10T12:52:24.398Z,63.23
2019-03-10T12:53:24.609Z,62.50
2019-03-10T12:54:24.783Z,66.16
2019-03-10T12:55:25.001Z,60.30
2019-03-10T12:56:25.178Z,60.55
2019-03-10T12:57:25.368Z,60.55
2019-03-10T12:58:25.566Z,60.79